Sunday, July 22, 2018, 1:51 AM CDT
Back to Local

KMCK, Mc Cook Municipal Airport

Location: Mc Cook, NE, United States Lat: 40.2
Local Time: 1:51 AM CDT ( 6:51 GMT) Lon: -100.583
Time Zone: US/Central Elev: 2578 ft

Show me the last for .
Show Decoded

2018-07-22 00:53 METAR KMCK 220553Z AUTO 15006KT 10SM CLR 24/19 A3007 RMK AO2 LTG DSNT SE SLP155
                 T02390194 10300 20233 403220194 50010 =
2018-07-21 23:53 METAR KMCK 220453Z AUTO 21004KT 10SM CLR 24/20 A3010 RMK AO2 LTG DSNT S SLP164
                 T02440200 =
2018-07-21 22:53 METAR KMCK 220353Z AUTO 11007KT 10SM CLR 24/19 A3005 RMK AO2 SLP151 T02440194 =
2018-07-21 21:53 METAR KMCK 220253Z AUTO 12007KT 10SM CLR 25/19 A3004 RMK AO2 SLP147 T02500194
                 53003 =
2018-07-21 20:53 METAR KMCK 220153Z AUTO 12008KT 10SM CLR 27/19 A3003 RMK AO2 SLP144 T02670189 =
2018-07-21 19:53 METAR KMCK 220053Z AUTO 13013KT 10SM CLR 29/19 A3001 RMK AO2 SLP138 T02890189 =
2018-07-21 18:53 METAR KMCK 212353Z AUTO 13012KT 10SM CLR 30/19 A3003 RMK AO2 SLP143 T03000189
                 10322 20294 58010 =
2018-07-21 17:53 METAR KMCK 212253Z AUTO 14014G20KT 10SM CLR 31/19 A3004 RMK AO2 SLP146 T03110189
                 =
2018-07-21 16:53 METAR KMCK 212153Z AUTO 14012KT 10SM CLR 32/18 A3005 RMK AO2 SLP148 T03170183 =
2018-07-21 15:53 METAR KMCK 212053Z AUTO 15012KT 10SM CLR 31/18 A3006 RMK AO2 SLP152 T03110183
                 56011 =
2018-07-21 14:53 METAR KMCK 211953Z AUTO 15012KT 10SM CLR 32/19 A3007 RMK AO2 SLP154 T03170189 =
2018-07-21 13:53 METAR KMCK 211853Z AUTO 14010G19KT 10SM CLR 31/18 A3008 RMK AO2 SLP158 T03060183
                 =
2018-07-21 12:53 METAR KMCK 211753Z AUTO 14012KT 10SM CLR 29/18 A3010 RMK AO2 SLP164 T02940178
                 10300 20200 58007 =
2018-07-21 11:53 METAR KMCK 211653Z AUTO 12012KT 10SM CLR 29/18 A3011 RMK AO2 SLP167 T02890178 =
2018-07-21 10:53 METAR KMCK 211553Z AUTO 14011KT 10SM CLR 27/19 A3011 RMK AO2 SLP171 T02670189
                 TSNO =
2018-07-21 09:53 METAR KMCK 211453Z AUTO 14008KT 10SM CLR 24/19 A3012 RMK AO2 SLP174 T02440189
                 53008 =
2018-07-21 08:53 METAR KMCK 211353Z AUTO 14008KT 10SM CLR 23/19 A3011 RMK AO2 SLP169 T02280194 =
2018-07-21 07:53 METAR KMCK 211253Z AUTO 11005KT 4SM BR FEW002 21/20 A3010 RMK AO2 SLP167
                 T02060200 =
2018-07-21 07:46 METAR KMCK 211246Z AUTO 11005KT 4SM BR SCT002 21/20 A3010 RMK AO2 T02060200 =
2018-07-21 07:37 METAR KMCK 211237Z AUTO 11006KT 2SM BR BKN002 21/20 A3010 RMK AO2 T02060200 =
2018-07-21 07:17 METAR KMCK 211217Z AUTO 10005KT 1/2SM FG OVC001 20/20 A3010 RMK AO2 T02000200 =
2018-07-21 06:53 METAR KMCK 211153Z AUTO 09005KT 1 1/2SM BR OVC001 20/20 A3009 RMK AO2 SLP163
                 T02000200 10228 20194 53012 =
2018-07-21 06:20 METAR KMCK 211120Z AUTO 06005KT 1SM BR BKN001 20/19 A3008 RMK AO2 T02000194 =
2018-07-21 06:08 METAR KMCK 211108Z AUTO 04005KT 1 3/4SM BR FEW002 20/19 A3008 RMK AO2 T02000194
                 =
2018-07-21 05:53 METAR KMCK 211053Z AUTO 06004KT 2 1/2SM BR CLR 20/19 A3008 RMK AO2 SLP157
                 T02000194 =
2018-07-21 04:53 METAR KMCK 210953Z AUTO 07005KT 4SM BR CLR 21/20 A3006 RMK AO2 SLP151 T02060200
                 =
2018-07-21 03:53 METAR KMCK 210853Z AUTO 09007KT 7SM CLR 21/20 A3005 RMK AO2 SLP148 T02110200
                 58005 =
2018-07-21 02:53 METAR KMCK 210753Z AUTO 09007KT 9SM CLR 22/21 A3007 RMK AO2 SLP153 T02170206 =
2018-07-21 01:53 METAR KMCK 210653Z AUTO 10007KT 10SM CLR 22/21 A3007 RMK AO2 SLP154 T02220206 =

Support USWX by starting your Amazon purchase here.